sensor_id;sensor_type;location;lat;lon;timestamp;P1;durP1;ratioP1;P2;durP2;ratioP2
6095;SDS011;25081;42.698;23.298;2024-03-23T00:54:34;37.00;;;19.00;;
6095;SDS011;25081;42.698;23.298;2024-03-23T00:56:43;37.60;;;19.32;;
6095;SDS011;25081;42.698;23.298;2024-03-23T00:58:51;44.20;;;19.23;;
6095;SDS011;25081;42.698;23.298;2024-03-23T01:01:00;37.75;;;17.82;;
6095;SDS011;25081;42.698;23.298;2024-03-23T01:03:09;33.23;;;17.75;;
6095;SDS011;25081;42.698;23.298;2024-03-23T01:05:18;29.80;;;17.50;;
6095;SDS011;25081;42.698;23.298;2024-03-23T01:07:27;35.17;;;18.80;;
6095;SDS011;25081;42.698;23.298;2024-03-23T01:09:36;31.30;;;16.85;;
6095;SDS011;25081;42.698;23.298;2024-03-23T01:11:45;30.32;;;16.50;;
6095;SDS011;25081;42.698;23.298;2024-03-23T01:13:54;28.70;;;15.90;;
6095;SDS011;25081;42.698;23.298;2024-03-23T01:16:03;26.23;;;15.28;;
6095;SDS011;25081;42.698;23.298;2024-03-23T01:18:12;31.25;;;16.27;;
6095;SDS011;25081;42.698;23.298;2024-03-23T01:20:21;30.10;;;15.83;;
6095;SDS011;25081;42.698;23.298;2024-03-23T01:22:30;25.72;;;14.80;;
6095;SDS011;25081;42.698;23.298;2024-03-23T01:24:38;34.73;;;15.98;;
6095;SDS011;25081;42.698;23.298;2024-03-23T01:26:47;21.97;;;13.48;;
6095;SDS011;25081;42.698;23.298;2024-03-23T01:28:56;23.70;;;14.20;;
6095;SDS011;25081;42.698;23.298;2024-03-23T01:31:05;21.15;;;12.75;;
6095;SDS011;25081;42.698;23.298;2024-03-23T01:33:14;21.12;;;11.35;;
6095;SDS011;25081;42.698;23.298;2024-03-23T01:35:22;24.50;;;11.75;;
6095;SDS011;25081;42.698;23.298;2024-03-23T01:37:31;20.50;;;11.15;;
6095;SDS011;25081;42.698;23.298;2024-03-23T01:39:39;27.52;;;12.03;;
6095;SDS011;25081;42.698;23.298;2024-03-23T01:41:48;19.32;;;11.20;;
6095;SDS011;25081;42.698;23.298;2024-03-23T01:43:57;22.25;;;11.73;;
6095;SDS011;25081;42.698;23.298;2024-03-23T01:46:06;22.25;;;11.38;;
6095;SDS011;25081;42.698;23.298;2024-03-23T01:48:14;16.97;;;10.38;;
6095;SDS011;25081;42.698;23.298;2024-03-23T01:50:23;19.32;;;11.20;;
6095;SDS011;25081;42.698;23.298;2024-03-23T01:52:32;20.00;;;11.22;;
6095;SDS011;25081;42.698;23.298;2024-03-23T01:54:40;21.90;;;11.45;;
6095;SDS011;25081;42.698;23.298;2024-03-23T01:56:49;18.80;;;10.60;;
6095;SDS011;25081;42.698;23.298;2024-03-23T01:58:58;16.57;;;10.78;;
6095;SDS011;25081;42.698;23.298;2024-03-23T02:01:07;14.38;;;9.58;;
6095;SDS011;25081;42.698;23.298;2024-03-23T02:03:25;21.70;;;11.60;;
6095;SDS011;25081;42.698;23.298;2024-03-23T02:05:33;18.80;;;10.93;;
6095;SDS011;25081;42.698;23.298;2024-03-23T02:07:42;18.90;;;11.60;;
6095;SDS011;25081;42.698;23.298;2024-03-23T02:09:51;18.62;;;9.95;;
6095;SDS011;25081;42.698;23.298;2024-03-23T02:11:59;18.32;;;10.38;;
6095;SDS011;25081;42.698;23.298;2024-03-23T02:14:09;23.35;;;10.75;;
6095;SDS011;25081;42.698;23.298;2024-03-23T02:16:18;16.62;;;9.60;;
6095;SDS011;25081;42.698;23.298;2024-03-23T02:18:27;20.65;;;11.25;;
6095;SDS011;25081;42.698;23.298;2024-03-23T02:20:36;19.10;;;9.93;;
6095;SDS011;25081;42.698;23.298;2024-03-23T02:22:45;14.78;;;9.40;;
6095;SDS011;25081;42.698;23.298;2024-03-23T02:24:53;16.90;;;10.70;;
6095;SDS011;25081;42.698;23.298;2024-03-23T02:27:02;15.65;;;9.40;;
6095;SDS011;25081;42.698;23.298;2024-03-23T02:29:11;21.48;;;11.22;;
6095;SDS011;25081;42.698;23.298;2024-03-23T02:31:20;19.12;;;10.75;;
6095;SDS011;25081;42.698;23.298;2024-03-23T02:33:29;16.20;;;10.82;;
6095;SDS011;25081;42.698;23.298;2024-03-23T02:35:37;14.55;;;9.60;;
6095;SDS011;25081;42.698;23.298;2024-03-23T02:37:47;15.55;;;8.95;;
6095;SDS011;25081;42.698;23.298;2024-03-23T02:39:55;14.35;;;8.20;;
6095;SDS011;25081;42.698;23.298;2024-03-23T02:42:04;20.57;;;9.98;;
6095;SDS011;25081;42.698;23.298;2024-03-23T02:44:13;14.25;;;9.00;;
6095;SDS011;25081;42.698;23.298;2024-03-23T02:46:21;17.98;;;9.65;;
6095;SDS011;25081;42.698;23.298;2024-03-23T02:48:30;19.20;;;9.60;;
6095;SDS011;25081;42.698;23.298;2024-03-23T02:50:39;16.23;;;9.50;;
6095;SDS011;25081;42.698;23.298;2024-03-23T02:52:48;17.20;;;9.05;;
6095;SDS011;25081;42.698;23.298;2024-03-23T02:54:57;15.68;;;9.05;;
6095;SDS011;25081;42.698;23.298;2024-03-23T02:57:05;18.05;;;9.98;;
6095;SDS011;25081;42.698;23.298;2024-03-23T02:59:14;12.78;;;9.28;;
6095;SDS011;25081;42.698;23.298;2024-03-23T03:01:23;13.18;;;9.20;;
6095;SDS011;25081;42.698;23.298;2024-03-23T03:03:32;17.50;;;10.40;;
6095;SDS011;25081;42.698;23.298;2024-03-23T03:05:40;17.82;;;9.48;;
6095;SDS011;25081;42.698;23.298;2024-03-23T03:07:49;17.82;;;9.78;;
6095;SDS011;25081;42.698;23.298;2024-03-23T03:09:58;16.42;;;9.70;;
6095;SDS011;25081;42.698;23.298;2024-03-23T03:12:07;17.48;;;10.38;;
6095;SDS011;25081;42.698;23.298;2024-03-23T03:14:15;19.92;;;11.00;;
6095;SDS011;25081;42.698;23.298;2024-03-23T03:16:24;13.78;;;9.78;;
6095;SDS011;25081;42.698;23.298;2024-03-23T03:18:33;16.77;;;10.35;;
6095;SDS011;25081;42.698;23.298;2024-03-23T03:20:42;19.90;;;10.28;;
6095;SDS011;25081;42.698;23.298;2024-03-23T03:22:51;17.60;;;10.00;;
6095;SDS011;25081;42.698;23.298;2024-03-23T03:25:00;21.17;;;9.80;;
6095;SDS011;25081;42.698;23.298;2024-03-23T03:27:09;19.57;;;9.15;;
6095;SDS011;25081;42.698;23.298;2024-03-23T03:29:17;17.25;;;9.95;;
6095;SDS011;25081;42.698;23.298;2024-03-23T03:31:26;17.55;;;8.88;;
6095;SDS011;25081;42.698;23.298;2024-03-23T03:33:35;18.42;;;10.10;;
6095;SDS011;25081;42.698;23.298;2024-03-23T03:35:44;18.07;;;9.83;;
6095;SDS011;25081;42.698;23.298;2024-03-23T03:37:52;17.82;;;10.03;;
6095;SDS011;25081;42.698;23.298;2024-03-23T03:40:01;19.70;;;9.35;;
6095;SDS011;25081;42.698;23.298;2024-03-23T03:42:10;15.00;;;9.48;;
6095;SDS011;25081;42.698;23.298;2024-03-23T03:44:19;16.80;;;9.90;;
6095;SDS011;25081;42.698;23.298;2024-03-23T03:46:28;17.17;;;10.05;;
6095;SDS011;25081;42.698;23.298;2024-03-23T03:48:36;17.65;;;9.90;;
6095;SDS011;25081;42.698;23.298;2024-03-23T03:50:45;15.23;;;9.10;;
6095;SDS011;25081;42.698;23.298;2024-03-23T03:52:54;15.45;;;9.48;;
6095;SDS011;25081;42.698;23.298;2024-03-23T03:55:03;19.42;;;10.15;;
6095;SDS011;25081;42.698;23.298;2024-03-23T03:57:12;18.62;;;10.23;;
6095;SDS011;25081;42.698;23.298;2024-03-23T03:59:21;20.90;;;10.20;;
6095;SDS011;25081;42.698;23.298;2024-03-23T04:01:29;20.80;;;10.53;;
6095;SDS011;25081;42.698;23.298;2024-03-23T04:03:38;17.05;;;8.95;;
6095;SDS011;25081;42.698;23.298;2024-03-23T04:05:50;16.48;;;10.10;;
6095;SDS011;25081;42.698;23.298;2024-03-23T04:07:59;16.85;;;10.30;;
6095;SDS011;25081;42.698;23.298;2024-03-23T04:10:08;17.50;;;10.55;;
6095;SDS011;25081;42.698;23.298;2024-03-23T04:12:17;16.25;;;9.45;;
6095;SDS011;25081;42.698;23.298;2024-03-23T04:14:26;20.00;;;10.63;;
6095;SDS011;25081;42.698;23.298;2024-03-23T04:16:35;16.82;;;9.58;;
6095;SDS011;25081;42.698;23.298;2024-03-23T04:18:43;20.82;;;10.75;;
6095;SDS011;25081;42.698;23.298;2024-03-23T04:20:52;28.98;;;10.93;;
6095;SDS011;25081;42.698;23.298;2024-03-23T04:23:00;18.32;;;10.58;;
6095;SDS011;25081;42.698;23.298;2024-03-23T04:25:09;17.02;;;11.43;;
6095;SDS011;25081;42.698;23.298;2024-03-23T04:27:18;19.95;;;11.28;;
6095;SDS011;25081;42.698;23.298;2024-03-23T04:29:26;20.65;;;11.68;;
6095;SDS011;25081;42.698;23.298;2024-03-23T04:31:35;20.60;;;11.85;;
6095;SDS011;25081;42.698;23.298;2024-03-23T04:33:44;19.90;;;9.33;;
6095;SDS011;25081;42.698;23.298;2024-03-23T04:35:53;29.25;;;13.58;;
6095;SDS011;25081;42.698;23.298;2024-03-23T04:38:01;19.30;;;11.18;;
6095;SDS011;25081;42.698;23.298;2024-03-23T04:40:11;22.20;;;11.50;;
6095;SDS011;25081;42.698;23.298;2024-03-23T04:42:19;25.75;;;12.25;;
6095;SDS011;25081;42.698;23.298;2024-03-23T04:44:28;19.35;;;12.50;;
6095;SDS011;25081;42.698;23.298;2024-03-23T04:46:37;23.77;;;12.13;;
6095;SDS011;25081;42.698;23.298;2024-03-23T04:48:46;22.73;;;12.00;;
6095;SDS011;25081;42.698;23.298;2024-03-23T04:50:57;26.50;;;13.60;;
6095;SDS011;25081;42.698;23.298;2024-03-23T04:53:06;27.07;;;14.38;;
6095;SDS011;25081;42.698;23.298;2024-03-23T04:55:15;25.02;;;12.85;;
6095;SDS011;25081;42.698;23.298;2024-03-23T04:57:24;27.95;;;14.73;;
6095;SDS011;25081;42.698;23.298;2024-03-23T04:59:33;23.50;;;13.32;;
6095;SDS011;25081;42.698;23.298;2024-03-23T05:01:41;21.75;;;13.35;;
6095;SDS011;25081;42.698;23.298;2024-03-23T05:03:50;23.73;;;11.80;;
6095;SDS011;25081;42.698;23.298;2024-03-23T05:05:59;19.37;;;12.53;;
6095;SDS011;25081;42.698;23.298;2024-03-23T05:08:07;22.02;;;13.78;;
6095;SDS011;25081;42.698;23.298;2024-03-23T05:10:16;26.57;;;13.85;;
6095;SDS011;25081;42.698;23.298;2024-03-23T05:12:25;25.43;;;12.33;;
6095;SDS011;25081;42.698;23.298;2024-03-23T05:14:34;23.75;;;12.28;;
6095;SDS011;25081;42.698;23.298;2024-03-23T05:16:42;25.57;;;13.18;;
6095;SDS011;25081;42.698;23.298;2024-03-23T05:18:51;23.92;;;13.13;;
6095;SDS011;25081;42.698;23.298;2024-03-23T05:21:00;14.87;;;10.25;;
6095;SDS011;25081;42.698;23.298;2024-03-23T05:23:09;15.45;;;9.73;;
6095;SDS011;25081;42.698;23.298;2024-03-23T05:25:17;14.87;;;8.90;;
6095;SDS011;25081;42.698;23.298;2024-03-23T05:27:26;12.47;;;10.03;;
6095;SDS011;25081;42.698;23.298;2024-03-23T05:29:35;22.47;;;12.90;;
6095;SDS011;25081;42.698;23.298;2024-03-23T05:31:43;30.80;;;16.43;;
6095;SDS011;25081;42.698;23.298;2024-03-23T05:33:52;14.87;;;8.97;;
6095;SDS011;25081;42.698;23.298;2024-03-23T05:36:01;15.03;;;9.65;;
6095;SDS011;25081;42.698;23.298;2024-03-23T05:38:10;13.03;;;8.80;;
6095;SDS011;25081;42.698;23.298;2024-03-23T05:40:19;11.27;;;8.27;;
6095;SDS011;25081;42.698;23.298;2024-03-23T05:42:27;11.77;;;8.23;;
6095;SDS011;25081;42.698;23.298;2024-03-23T05:44:36;11.85;;;9.48;;
6095;SDS011;25081;42.698;23.298;2024-03-23T05:46:45;11.68;;;8.60;;
6095;SDS011;25081;42.698;23.298;2024-03-23T05:48:53;12.90;;;7.50;;
6095;SDS011;25081;42.698;23.298;2024-03-23T05:51:03;11.57;;;8.28;;
6095;SDS011;25081;42.698;23.298;2024-03-23T05:53:12;13.98;;;7.70;;
6095;SDS011;25081;42.698;23.298;2024-03-23T05:55:20;14.07;;;8.18;;
6095;SDS011;25081;42.698;23.298;2024-03-23T05:57:29;13.32;;;8.13;;
6095;SDS011;25081;42.698;23.298;2024-03-23T05:59:38;13.22;;;7.90;;
6095;SDS011;25081;42.698;23.298;2024-03-23T06:01:47;12.30;;;9.00;;
6095;SDS011;25081;42.698;23.298;2024-03-23T06:03:55;13.83;;;7.80;;
6095;SDS011;25081;42.698;23.298;2024-03-23T06:06:04;12.65;;;8.03;;
6095;SDS011;25081;42.698;23.298;2024-03-23T06:08:13;10.75;;;8.20;;
6095;SDS011;25081;42.698;23.298;2024-03-23T06:10:22;13.38;;;9.13;;
6095;SDS011;25081;42.698;23.298;2024-03-23T06:12:31;16.42;;;9.65;;
6095;SDS011;25081;42.698;23.298;2024-03-23T06:14:39;12.82;;;7.55;;
6095;SDS011;25081;42.698;23.298;2024-03-23T06:16:48;12.55;;;8.35;;
6095;SDS011;25081;42.698;23.298;2024-03-23T06:18:57;19.40;;;10.23;;
6095;SDS011;25081;42.698;23.298;2024-03-23T06:21:05;16.97;;;9.55;;
6095;SDS011;25081;42.698;23.298;2024-03-23T06:23:15;13.15;;;8.45;;
6095;SDS011;25081;42.698;23.298;2024-03-23T06:25:24;15.43;;;9.05;;
6095;SDS011;25081;42.698;23.298;2024-03-23T06:27:33;13.10;;;9.00;;
6095;SDS011;25081;42.698;23.298;2024-03-23T06:29:41;16.07;;;10.40;;
6095;SDS011;25081;42.698;23.298;2024-03-23T06:31:53;19.25;;;10.53;;
6095;SDS011;25081;42.698;23.298;2024-03-23T06:34:02;24.35;;;10.88;;
6095;SDS011;25081;42.698;23.298;2024-03-23T06:36:10;16.12;;;9.68;;
6095;SDS011;25081;42.698;23.298;2024-03-23T06:38:19;18.00;;;9.70;;
6095;SDS011;25081;42.698;23.298;2024-03-23T06:40:28;18.48;;;10.35;;
6095;SDS011;25081;42.698;23.298;2024-03-23T06:42:37;17.67;;;10.18;;
6095;SDS011;25081;42.698;23.298;2024-03-23T06:44:45;20.85;;;10.15;;
6095;SDS011;25081;42.698;23.298;2024-03-23T06:46:54;14.58;;;10.25;;
6095;SDS011;25081;42.698;23.298;2024-03-23T06:49:03;16.73;;;10.10;;
6095;SDS011;25081;42.698;23.298;2024-03-23T06:51:11;18.98;;;10.30;;
6095;SDS011;25081;42.698;23.298;2024-03-23T06:53:20;17.90;;;10.28;;
6095;SDS011;25081;42.698;23.298;2024-03-23T06:55:28;19.75;;;9.75;;
6095;SDS011;25081;42.698;23.298;2024-03-23T06:57:37;16.27;;;9.73;;
6095;SDS011;25081;42.698;23.298;2024-03-23T06:59:46;14.37;;;10.10;;
6095;SDS011;25081;42.698;23.298;2024-03-23T07:01:55;16.30;;;10.60;;
6095;SDS011;25081;42.698;23.298;2024-03-23T07:04:04;15.70;;;10.50;;
6095;SDS011;25081;42.698;23.298;2024-03-23T07:06:13;19.60;;;11.20;;
6095;SDS011;25081;42.698;23.298;2024-03-23T07:08:22;17.90;;;10.80;;
6095;SDS011;25081;42.698;23.298;2024-03-23T07:10:31;14.80;;;10.53;;
6095;SDS011;25081;42.698;23.298;2024-03-23T07:12:40;13.40;;;10.13;;
6095;SDS011;25081;42.698;23.298;2024-03-23T07:14:48;17.97;;;10.23;;
6095;SDS011;25081;42.698;23.298;2024-03-23T07:16:57;15.23;;;10.10;;
6095;SDS011;25081;42.698;23.298;2024-03-23T07:19:06;17.30;;;10.50;;
6095;SDS011;25081;42.698;23.298;2024-03-23T07:21:14;18.27;;;9.97;;
6095;SDS011;25081;42.698;23.298;2024-03-23T07:23:23;15.70;;;11.30;;
6095;SDS011;25081;42.698;23.298;2024-03-23T07:25:32;17.33;;;11.80;;
6095;SDS011;25081;42.698;23.298;2024-03-23T07:27:40;15.80;;;10.30;;
6095;SDS011;25081;42.698;23.298;2024-03-23T07:29:49;17.03;;;11.13;;
6095;SDS011;25081;42.698;23.298;2024-03-23T07:31:58;13.43;;;10.00;;
6095;SDS011;25081;42.698;23.298;2024-03-23T07:34:06;15.00;;;10.70;;
6095;SDS011;25081;42.698;23.298;2024-03-23T07:36:15;12.47;;;9.70;;
6095;SDS011;25081;42.698;23.298;2024-03-23T07:38:24;20.00;;;10.43;;
6095;SDS011;25081;42.698;23.298;2024-03-23T07:40:33;16.87;;;12.00;;
6095;SDS011;25081;42.698;23.298;2024-03-23T07:42:41;16.97;;;12.10;;
6095;SDS011;25081;42.698;23.298;2024-03-23T07:44:50;15.00;;;11.20;;
6095;SDS011;25081;42.698;23.298;2024-03-23T07:47:00;16.27;;;11.90;;
6095;SDS011;25081;42.698;23.298;2024-03-23T07:49:08;15.67;;;11.00;;
6095;SDS011;25081;42.698;23.298;2024-03-23T07:51:17;14.90;;;10.60;;
6095;SDS011;25081;42.698;23.298;2024-03-23T07:53:25;15.43;;;11.37;;
6095;SDS011;25081;42.698;23.298;2024-03-23T07:55:34;14.13;;;9.87;;
6095;SDS011;25081;42.698;23.298;2024-03-23T07:57:43;16.03;;;12.23;;
6095;SDS011;25081;42.698;23.298;2024-03-23T07:59:52;15.83;;;11.80;;
6095;SDS011;25081;42.698;23.298;2024-03-23T08:02:00;14.50;;;11.17;;
6095;SDS011;25081;42.698;23.298;2024-03-23T08:04:09;16.83;;;12.30;;
6095;SDS011;25081;42.698;23.298;2024-03-23T08:06:19;17.60;;;11.77;;
6095;SDS011;25081;42.698;23.298;2024-03-23T08:08:27;16.57;;;12.30;;
6095;SDS011;25081;42.698;23.298;2024-03-23T08:10:35;15.97;;;11.83;;
6095;SDS011;25081;42.698;23.298;2024-03-23T08:12:46;14.43;;;11.13;;
6095;SDS011;25081;42.698;23.298;2024-03-23T08:14:55;24.00;;;13.13;;
6095;SDS011;25081;42.698;23.298;2024-03-23T08:17:04;14.77;;;11.13;;
6095;SDS011;25081;42.698;23.298;2024-03-23T08:19:12;17.93;;;11.70;;
6095;SDS011;25081;42.698;23.298;2024-03-23T08:21:21;19.50;;;12.03;;
6095;SDS011;25081;42.698;23.298;2024-03-23T08:23:30;15.80;;;11.17;;
6095;SDS011;25081;42.698;23.298;2024-03-23T08:25:39;17.50;;;11.77;;
6095;SDS011;25081;42.698;23.298;2024-03-23T08:27:48;19.60;;;12.90;;
6095;SDS011;25081;42.698;23.298;2024-03-23T08:29:56;24.70;;;12.10;;
6095;SDS011;25081;42.698;23.298;2024-03-23T08:32:05;18.60;;;12.00;;
6095;SDS011;25081;42.698;23.298;2024-03-23T08:34:14;20.10;;;13.60;;
6095;SDS011;25081;42.698;23.298;2024-03-23T08:36:23;16.93;;;11.80;;
6095;SDS011;25081;42.698;23.298;2024-03-23T08:38:31;14.77;;;11.73;;
6095;SDS011;25081;42.698;23.298;2024-03-23T08:40:40;17.87;;;11.50;;
6095;SDS011;25081;42.698;23.298;2024-03-23T08:42:49;16.87;;;12.50;;
6095;SDS011;25081;42.698;23.298;2024-03-23T08:44:57;18.70;;;12.80;;
6095;SDS011;25081;42.698;23.298;2024-03-23T08:47:06;19.80;;;12.27;;
6095;SDS011;25081;42.698;23.298;2024-03-23T08:49:15;20.03;;;12.57;;
6095;SDS011;25081;42.698;23.298;2024-03-23T08:51:24;18.30;;;11.47;;
6095;SDS011;25081;42.698;23.298;2024-03-23T08:53:33;15.60;;;11.70;;
6095;SDS011;25081;42.698;23.298;2024-03-23T08:55:41;18.53;;;11.70;;
6095;SDS011;25081;42.698;23.298;2024-03-23T08:57:50;17.87;;;11.63;;
6095;SDS011;25081;42.698;23.298;2024-03-23T08:59:59;13.90;;;11.83;;
6095;SDS011;25081;42.698;23.298;2024-03-23T09:02:07;17.37;;;12.97;;
6095;SDS011;25081;42.698;23.298;2024-03-23T09:04:16;15.57;;;11.97;;
6095;SDS011;25081;42.698;23.298;2024-03-23T09:06:25;16.03;;;12.10;;
6095;SDS011;25081;42.698;23.298;2024-03-23T09:08:34;13.73;;;11.87;;
6095;SDS011;25081;42.698;23.298;2024-03-23T09:10:43;19.23;;;11.90;;
6095;SDS011;25081;42.698;23.298;2024-03-23T09:12:51;15.77;;;11.33;;
6095;SDS011;25081;42.698;23.298;2024-03-23T09:15:00;15.63;;;11.40;;
6095;SDS011;25081;42.698;23.298;2024-03-23T09:17:08;22.43;;;13.37;;
6095;SDS011;25081;42.698;23.298;2024-03-23T09:19:17;15.70;;;12.13;;
6095;SDS011;25081;42.698;23.298;2024-03-23T09:21:26;24.30;;;12.97;;
6095;SDS011;25081;42.698;23.298;2024-03-23T09:23:35;18.63;;;12.50;;
6095;SDS011;25081;42.698;23.298;2024-03-23T09:25:43;19.90;;;11.63;;
6095;SDS011;25081;42.698;23.298;2024-03-23T09:27:52;17.97;;;12.20;;
6095;SDS011;25081;42.698;23.298;2024-03-23T09:30:01;14.37;;;11.43;;
6095;SDS011;25081;42.698;23.298;2024-03-23T09:32:10;16.03;;;12.40;;
6095;SDS011;25081;42.698;23.298;2024-03-23T09:34:19;16.30;;;11.97;;
6095;SDS011;25081;42.698;23.298;2024-03-23T09:36:27;18.27;;;12.37;;
6095;SDS011;25081;42.698;23.298;2024-03-23T09:38:36;16.67;;;11.43;;
6095;SDS011;25081;42.698;23.298;2024-03-23T09:40:44;13.07;;;10.63;;
6095;SDS011;25081;42.698;23.298;2024-03-23T09:42:53;13.13;;;10.90;;
6095;SDS011;25081;42.698;23.298;2024-03-23T09:45:02;14.73;;;13.13;;
6095;SDS011;25081;42.698;23.298;2024-03-23T09:47:11;14.67;;;11.77;;
6095;SDS011;25081;42.698;23.298;2024-03-23T09:49:20;16.23;;;12.27;;
6095;SDS011;25081;42.698;23.298;2024-03-23T09:51:28;20.57;;;11.30;;
6095;SDS011;25081;42.698;23.298;2024-03-23T09:53:37;11.83;;;10.60;;
6095;SDS011;25081;42.698;23.298;2024-03-23T09:55:46;21.17;;;11.13;;
6095;SDS011;25081;42.698;23.298;2024-03-23T09:57:54;12.17;;;10.67;;
6095;SDS011;25081;42.698;23.298;2024-03-23T10:00:03;16.33;;;12.30;;
6095;SDS011;25081;42.698;23.298;2024-03-23T10:02:13;15.70;;;12.50;;
6095;SDS011;25081;42.698;23.298;2024-03-23T10:04:37;15.10;;;11.40;;
6095;SDS011;25081;42.698;23.298;2024-03-23T10:06:46;18.07;;;12.20;;
6095;SDS011;25081;42.698;23.298;2024-03-23T10:08:54;16.40;;;11.40;;
6095;SDS011;25081;42.698;23.298;2024-03-23T10:11:13;14.50;;;11.53;;
6095;SDS011;25081;42.698;23.298;2024-03-23T10:13:24;16.03;;;11.20;;
6095;SDS011;25081;42.698;23.298;2024-03-23T10:15:34;15.00;;;11.17;;
6095;SDS011;25081;42.698;23.298;2024-03-23T10:17:43;20.83;;;11.27;;
6095;SDS011;25081;42.698;23.298;2024-03-23T10:19:52;14.47;;;10.00;;
6095;SDS011;25081;42.698;23.298;2024-03-23T10:22:00;18.60;;;12.47;;
6095;SDS011;25081;42.698;23.298;2024-03-23T10:24:10;15.67;;;11.33;;
6095;SDS011;25081;42.698;23.298;2024-03-23T10:26:19;18.63;;;13.30;;
6095;SDS011;25081;42.698;23.298;2024-03-23T10:28:28;18.47;;;13.20;;
6095;SDS011;25081;42.698;23.298;2024-03-23T10:30:37;19.60;;;11.97;;
6095;SDS011;25081;42.698;23.298;2024-03-23T10:32:45;15.07;;;10.87;;
6095;SDS011;25081;42.698;23.298;2024-03-23T10:34:54;14.20;;;10.23;;
6095;SDS011;25081;42.698;23.298;2024-03-23T10:37:03;17.87;;;11.40;;
6095;SDS011;25081;42.698;23.298;2024-03-23T10:39:12;13.70;;;10.10;;
6095;SDS011;25081;42.698;23.298;2024-03-23T10:41:21;17.53;;;10.30;;
6095;SDS011;25081;42.698;23.298;2024-03-23T10:43:30;14.50;;;10.07;;
6095;SDS011;25081;42.698;23.298;2024-03-23T10:45:39;15.13;;;10.50;;
6095;SDS011;25081;42.698;23.298;2024-03-23T10:47:47;20.80;;;9.90;;
6095;SDS011;25081;42.698;23.298;2024-03-23T10:49:56;16.37;;;9.67;;
6095;SDS011;25081;42.698;23.298;2024-03-23T10:52:05;12.83;;;9.80;;
6095;SDS011;25081;42.698;23.298;2024-03-23T10:54:14;11.80;;;10.00;;
6095;SDS011;25081;42.698;23.298;2024-03-23T10:56:23;15.33;;;9.73;;
6095;SDS011;25081;42.698;23.298;2024-03-23T10:58:32;15.40;;;9.90;;
6095;SDS011;25081;42.698;23.298;2024-03-23T11:00:40;13.20;;;9.23;;
6095;SDS011;25081;42.698;23.298;2024-03-23T11:02:49;12.10;;;8.93;;
6095;SDS011;25081;42.698;23.298;2024-03-23T11:04:58;15.03;;;9.80;;
6095;SDS011;25081;42.698;23.298;2024-03-23T11:07:28;13.87;;;9.80;;
6095;SDS011;25081;42.698;23.298;2024-03-23T11:09:51;13.77;;;9.03;;
6095;SDS011;25081;42.698;23.298;2024-03-23T11:12:00;15.83;;;8.63;;
6095;SDS011;25081;42.698;23.298;2024-03-23T11:14:12;12.93;;;9.60;;
6095;SDS011;25081;42.698;23.298;2024-03-23T11:16:22;13.03;;;8.20;;
6095;SDS011;25081;42.698;23.298;2024-03-23T11:18:31;16.60;;;8.20;;
6095;SDS011;25081;42.698;23.298;2024-03-23T11:20:40;13.27;;;8.53;;
6095;SDS011;25081;42.698;23.298;2024-03-23T11:22:48;18.60;;;8.70;;
6095;SDS011;25081;42.698;23.298;2024-03-23T11:24:58;13.60;;;8.33;;
6095;SDS011;25081;42.698;23.298;2024-03-23T11:27:16;15.23;;;8.53;;
6095;SDS011;25081;42.698;23.298;2024-03-23T11:29:25;13.47;;;8.50;;
6095;SDS011;25081;42.698;23.298;2024-03-23T11:31:34;10.63;;;8.00;;
6095;SDS011;25081;42.698;23.298;2024-03-23T11:33:42;11.97;;;7.63;;
6095;SDS011;25081;42.698;23.298;2024-03-23T11:35:51;11.53;;;7.70;;
6095;SDS011;25081;42.698;23.298;2024-03-23T11:38:04;12.63;;;7.53;;
6095;SDS011;25081;42.698;23.298;2024-03-23T11:40:19;13.23;;;7.87;;
6095;SDS011;25081;42.698;23.298;2024-03-23T11:42:29;13.70;;;8.43;;
6095;SDS011;25081;42.698;23.298;2024-03-23T11:44:37;11.67;;;8.43;;
6095;SDS011;25081;42.698;23.298;2024-03-23T11:46:46;17.80;;;8.63;;
6095;SDS011;25081;42.698;23.298;2024-03-23T11:48:55;10.57;;;7.13;;
6095;SDS011;25081;42.698;23.298;2024-03-23T11:51:04;18.67;;;7.60;;
6095;SDS011;25081;42.698;23.298;2024-03-23T11:53:13;8.60;;;6.63;;
6095;SDS011;25081;42.698;23.298;2024-03-23T11:55:22;12.57;;;8.13;;
6095;SDS011;25081;42.698;23.298;2024-03-23T11:57:31;10.10;;;7.47;;
6095;SDS011;25081;42.698;23.298;2024-03-23T11:59:40;10.10;;;6.40;;
6095;SDS011;25081;42.698;23.298;2024-03-23T12:01:48;13.80;;;5.70;;
6095;SDS011;25081;42.698;23.298;2024-03-23T12:03:57;12.13;;;7.60;;
6095;SDS011;25081;42.698;23.298;2024-03-23T12:06:06;10.00;;;7.13;;
6095;SDS011;25081;42.698;23.298;2024-03-23T12:08:21;10.43;;;5.80;;
6095;SDS011;25081;42.698;23.298;2024-03-23T12:10:30;10.73;;;7.30;;
6095;SDS011;25081;42.698;23.298;2024-03-23T12:12:38;11.53;;;6.37;;
6095;SDS011;25081;42.698;23.298;2024-03-23T12:15:01;9.80;;;5.87;;
6095;SDS011;25081;42.698;23.298;2024-03-23T12:17:10;11.00;;;6.77;;
6095;SDS011;25081;42.698;23.298;2024-03-23T12:19:19;9.53;;;5.63;;
6095;SDS011;25081;42.698;23.298;2024-03-23T12:21:28;10.43;;;5.30;;
6095;SDS011;25081;42.698;23.298;2024-03-23T12:23:38;5.47;;;3.83;;
6095;SDS011;25081;42.698;23.298;2024-03-23T12:25:48;4.10;;;3.30;;
6095;SDS011;25081;42.698;23.298;2024-03-23T12:27:55;8.47;;;4.13;;
6095;SDS011;25081;42.698;23.298;2024-03-23T12:30:07;12.60;;;7.57;;
6095;SDS011;25081;42.698;23.298;2024-03-23T12:32:16;13.13;;;6.27;;
6095;SDS011;25081;42.698;23.298;2024-03-23T12:34:25;10.97;;;6.93;;
6095;SDS011;25081;42.698;23.298;2024-03-23T12:36:34;11.57;;;6.20;;
6095;SDS011;25081;42.698;23.298;2024-03-23T12:38:42;8.13;;;5.57;;
6095;SDS011;25081;42.698;23.298;2024-03-23T12:40:51;9.30;;;5.00;;
6095;SDS011;25081;42.698;23.298;2024-03-23T12:43:00;4.40;;;3.20;;
6095;SDS011;25081;42.698;23.298;2024-03-23T12:45:09;3.53;;;2.70;;
6095;SDS011;25081;42.698;23.298;2024-03-23T12:47:18;4.20;;;2.80;;
6095;SDS011;25081;42.698;23.298;2024-03-23T12:49:26;5.83;;;2.87;;
6095;SDS011;25081;42.698;23.298;2024-03-23T12:51:35;3.90;;;2.60;;
6095;SDS011;25081;42.698;23.298;2024-03-23T12:53:44;3.87;;;2.40;;
6095;SDS011;25081;42.698;23.298;2024-03-23T12:55:52;3.87;;;2.63;;
6095;SDS011;25081;42.698;23.298;2024-03-23T12:58:01;5.47;;;2.53;;
6095;SDS011;25081;42.698;23.298;2024-03-23T13:00:11;5.80;;;2.37;;
6095;SDS011;25081;42.698;23.298;2024-03-23T13:02:21;3.50;;;2.40;;
6095;SDS011;25081;42.698;23.298;2024-03-23T13:04:29;2.97;;;1.97;;
6095;SDS011;25081;42.698;23.298;2024-03-23T13:06:38;6.20;;;2.47;;
6095;SDS011;25081;42.698;23.298;2024-03-23T13:08:47;3.00;;;2.40;;
6095;SDS011;25081;42.698;23.298;2024-03-23T13:10:57;5.10;;;2.60;;
6095;SDS011;25081;42.698;23.298;2024-03-23T13:13:06;4.07;;;3.00;;
6095;SDS011;25081;42.698;23.298;2024-03-23T13:15:15;3.27;;;2.03;;
6095;SDS011;25081;42.698;23.298;2024-03-23T13:17:23;2.60;;;2.30;;
6095;SDS011;25081;42.698;23.298;2024-03-23T13:19:32;3.17;;;2.20;;
6095;SDS011;25081;42.698;23.298;2024-03-23T13:21:41;3.77;;;2.47;;
6095;SDS011;25081;42.698;23.298;2024-03-23T13:23:49;5.70;;;2.47;;
6095;SDS011;25081;42.698;23.298;2024-03-23T13:25:58;7.93;;;1.80;;
6095;SDS011;25081;42.698;23.298;2024-03-23T13:28:07;5.20;;;2.50;;
6095;SDS011;25081;42.698;23.298;2024-03-23T13:30:16;3.80;;;2.33;;
6095;SDS011;25081;42.698;23.298;2024-03-23T13:32:25;3.30;;;2.17;;
6095;SDS011;25081;42.698;23.298;2024-03-23T13:34:33;4.57;;;2.20;;